createdAt,value
2019-05-06T00:00:13.984Z,59.46
2019-05-06T00:02:43.591Z,59.58
2019-05-06T00:05:14.284Z,59.93
2019-05-06T00:07:44.724Z,59.99
2019-05-06T00:10:34.202Z,59.99
2019-05-06T00:13:04.636Z,60.31
2019-05-06T00:15:34.364Z,60.34
2019-05-06T00:18:04.506Z,60.55
2019-05-06T00:20:34.814Z,60.62
2019-05-06T00:23:05.541Z,60.40
2019-05-06T00:25:44.156Z,60.51
2019-05-06T00:28:30.632Z,60.14
2019-05-06T00:31:12.121Z,60.03
2019-05-06T00:33:31.444Z,60.27
2019-05-06T00:36:00.652Z,60.04
2019-05-06T00:38:29.500Z,59.97
2019-05-06T00:43:51.492Z,59.70
2019-05-06T00:46:20.192Z,59.87
2019-05-06T00:48:48.837Z,60.15
2019-05-06T00:51:17.522Z,60.72
2019-05-06T00:53:54.436Z,60.88
2019-05-06T00:56:24.351Z,60.76
2019-05-06T00:58:54.418Z,60.48
2019-05-06T01:01:29.285Z,60.53
2019-05-06T01:03:53.838Z,60.76
2019-05-06T01:06:24.557Z,60.79
2019-05-06T01:08:54.377Z,61.15
2019-05-06T01:11:23.996Z,61.07
2019-05-06T01:13:54.614Z,61.03
2019-05-06T01:16:24.969Z,61.30
2019-05-06T01:18:54.222Z,61.46
2019-05-06T01:21:23.847Z,61.79
2019-05-06T01:23:54.640Z,61.43
2019-05-06T01:26:24.253Z,61.18
2019-05-06T01:28:54.591Z,61.13
2019-05-06T01:31:25.998Z,61.00
2019-05-06T01:33:54.471Z,61.26
2019-05-06T01:36:24.922Z,61.34
2019-05-06T01:38:58.751Z,61.84
2019-05-06T01:44:09.382Z,62.19
2019-05-06T01:46:38.095Z,62.02
2019-05-06T01:49:06.829Z,62.08
2019-05-06T01:51:35.577Z,62.59
2019-05-06T01:54:04.445Z,62.52
2019-05-06T01:56:33.684Z,62.62
2019-05-06T01:59:04.588Z,62.74
2019-05-06T02:01:34.191Z,63.20
2019-05-06T02:04:04.542Z,62.84
2019-05-06T02:06:34.239Z,62.69
2019-05-06T02:09:04.538Z,63.31
2019-05-06T02:11:33.840Z,63.10
2019-05-06T02:14:04.602Z,63.41
2019-05-06T02:16:34.349Z,63.35
2019-05-06T02:19:04.062Z,63.12
2019-05-06T02:21:34.638Z,62.91
2019-05-06T02:24:08.066Z,62.69
2019-05-06T02:26:36.801Z,62.70
2019-05-06T02:29:07.123Z,63.06
2019-05-06T02:31:46.529Z,62.95
2019-05-06T02:34:25.382Z,63.07
2019-05-06T02:37:11.089Z,63.13
2019-05-06T02:39:39.832Z,63.25
2019-05-06T02:42:09.041Z,63.42
2019-05-06T02:44:37.710Z,63.64
2019-05-06T02:47:14.047Z,63.49
2019-05-06T02:49:44.519Z,63.58
2019-05-06T02:52:14.040Z,63.62
2019-05-06T02:54:43.050Z,63.74
2019-05-06T02:57:13.139Z,63.80
2019-05-06T02:59:44.196Z,63.93
2019-05-06T03:02:13.941Z,63.87
2019-05-06T03:04:43.679Z,63.74
2019-05-06T03:07:14.476Z,63.62
2019-05-06T03:09:44.542Z,64.09
2019-05-06T03:12:13.867Z,64.25
2019-05-06T03:14:43.700Z,64.12
2019-05-06T03:17:14.031Z,63.88
2019-05-06T03:19:46.001Z,63.77
2019-05-06T03:22:18.366Z,63.96
2019-05-06T03:24:48.866Z,63.66
2019-05-06T03:27:17.531Z,63.70
2019-05-06T03:29:46.243Z,63.60
2019-05-06T03:32:16.670Z,63.73
2019-05-06T03:35:00.575Z,63.85
2019-05-06T03:37:17.280Z,63.56
2019-05-06T03:39:46.335Z,63.76
2019-05-06T03:42:16.568Z,63.88
2019-05-06T03:44:47.033Z,64.02
2019-05-06T03:47:17.343Z,64.10
2019-05-06T03:49:54.420Z,63.96
2019-05-06T03:52:23.269Z,63.93
2019-05-06T03:54:53.686Z,64.33
2019-05-06T03:57:24.167Z,64.27
2019-05-06T03:59:53.622Z,64.26
2019-05-06T04:02:24.447Z,64.18
2019-05-06T04:04:56.390Z,64.26
2019-05-06T04:07:23.880Z,65.26
2019-05-06T04:09:53.531Z,65.50
2019-05-06T04:12:24.200Z,65.34
2019-05-06T04:14:54.289Z,65.37
2019-05-06T04:17:32.890Z,65.87
2019-05-06T04:20:13.498Z,65.51
2019-05-06T04:22:46.531Z,65.23
2019-05-06T04:25:34.921Z,65.51
2019-05-06T04:28:05.819Z,65.55
2019-05-06T04:30:34.584Z,65.55
2019-05-06T04:33:03.561Z,65.93
2019-05-06T04:35:33.757Z,65.94
2019-05-06T04:38:03.339Z,66.01
2019-05-06T04:40:33.161Z,66.05
2019-05-06T04:43:03.606Z,66.38
2019-05-06T04:45:33.762Z,66.36
2019-05-06T04:48:03.682Z,66.65
2019-05-06T04:50:33.262Z,66.67
2019-05-06T04:53:05.659Z,66.85
2019-05-06T04:55:35.970Z,67.06
2019-05-06T04:58:06.571Z,67.30
2019-05-06T05:00:37.518Z,67.67
2019-05-06T05:03:06.393Z,68.00
2019-05-06T05:05:35.393Z,67.58
2019-05-06T05:08:04.175Z,67.66
2019-05-06T05:10:43.172Z,67.61
2019-05-06T05:13:23.187Z,67.58
2019-05-06T05:15:59.421Z,67.64
2019-05-06T05:18:32.036Z,67.88
2019-05-06T05:21:02.423Z,68.20
2019-05-06T05:23:31.934Z,68.23
2019-05-06T05:26:02.766Z,68.50
2019-05-06T05:28:32.059Z,68.26
2019-05-06T05:31:02.881Z,68.33
2019-05-06T05:33:32.709Z,68.48
2019-05-06T05:36:02.196Z,68.29
2019-05-06T05:38:32.107Z,67.85
2019-05-06T05:41:03.050Z,67.65
2019-05-06T05:43:33.707Z,67.84
2019-05-06T05:46:03.079Z,67.64
2019-05-06T05:48:39.174Z,67.67
2019-05-06T05:51:07.857Z,67.81
2019-05-06T05:53:36.514Z,67.79
2019-05-06T05:56:05.605Z,68.33
2019-05-06T05:58:34.393Z,67.47
2019-05-06T06:01:04.176Z,67.68
2019-05-06T06:03:33.016Z,67.32
2019-05-06T06:06:03.045Z,66.71
2019-05-06T06:08:32.325Z,67.38
2019-05-06T06:11:12.311Z,66.96
2019-05-06T06:13:43.299Z,66.16
2019-05-06T06:16:29.538Z,65.53
2019-05-06T06:19:03.245Z,63.45
2019-05-06T06:21:46.324Z,62.83
2019-05-06T06:24:19.640Z,63.08
2019-05-06T06:26:48.328Z,62.57
2019-05-06T06:29:17.062Z,61.90
2019-05-06T06:31:47.868Z,61.68
2019-05-06T06:34:18.616Z,61.40
2019-05-06T06:36:57.690Z,61.13
2019-05-06T06:39:28.022Z,61.53
2019-05-06T06:41:56.896Z,61.11
2019-05-06T06:44:27.449Z,60.90
2019-05-06T06:46:56.108Z,60.75
2019-05-06T06:49:24.854Z,60.90
2019-05-06T06:51:53.582Z,60.43
2019-05-06T06:54:22.842Z,60.25
2019-05-06T06:57:06.217Z,60.34
2019-05-06T06:59:28.694Z,58.81
2019-05-06T07:02:16.081Z,57.54
2019-05-06T07:04:52.609Z,57.13
2019-05-06T07:07:23.085Z,57.75
2019-05-06T07:09:52.633Z,58.07
2019-05-06T07:12:23.459Z,57.31
2019-05-06T07:14:53.860Z,56.62
2019-05-06T07:17:22.891Z,57.21
2019-05-06T07:19:56.294Z,58.04
2019-05-06T07:22:26.619Z,56.95
2019-05-06T07:24:55.374Z,56.93
2019-05-06T07:27:25.776Z,56.97
2019-05-06T07:29:54.483Z,57.26
2019-05-06T07:32:23.332Z,56.11
2019-05-06T07:34:53.062Z,55.27
2019-05-06T07:37:22.236Z,54.28
2019-05-06T07:39:52.951Z,53.29
2019-05-06T07:45:39.631Z,45.79
2019-05-06T07:48:09.965Z,42.75
2019-05-06T07:50:38.783Z,39.55
2019-05-06T07:53:07.827Z,38.61
2019-05-06T07:55:37.727Z,37.63
2019-05-06T07:58:06.977Z,34.17
2019-05-06T08:00:35.749Z,35.30
2019-05-06T08:03:04.649Z,33.69
2019-05-06T08:05:33.367Z,35.69
2019-05-06T08:08:03.589Z,34.60
2019-05-06T08:10:33.283Z,33.64
2019-05-06T08:13:03.047Z,33.20
2019-05-06T08:15:32.776Z,32.26
2019-05-06T08:18:03.398Z,33.98
2019-05-06T08:20:38.635Z,33.75
2019-05-06T08:23:17.466Z,35.24
2019-05-06T08:25:54.381Z,36.38
2019-05-06T08:28:22.525Z,37.24
2019-05-06T08:30:53.143Z,39.55
2019-05-06T08:33:22.068Z,40.77
2019-05-06T08:35:53.319Z,42.79
2019-05-06T08:38:22.610Z,43.85
2019-05-06T08:40:52.553Z,47.79
2019-05-06T08:43:21.957Z,51.45
2019-05-06T08:45:52.656Z,53.01
2019-05-06T08:48:22.032Z,55.69
2019-05-06T08:50:52.903Z,57.08
2019-05-06T08:53:26.613Z,59.18
2019-05-06T08:55:56.991Z,59.82
2019-05-06T08:58:43.743Z,58.86
2019-05-06T09:01:14.860Z,58.10
2019-05-06T09:03:43.537Z,57.42
2019-05-06T09:06:24.514Z,56.36
2019-05-06T09:08:43.018Z,51.84
2019-05-06T09:11:12.198Z,42.57
2019-05-06T09:13:42.861Z,42.57
2019-05-06T09:16:12.944Z,41.63
2019-05-06T09:18:42.602Z,42.43
2019-05-06T09:21:12.321Z,43.19
2019-05-06T09:23:42.394Z,44.22
2019-05-06T09:26:13.135Z,41.88
2019-05-06T09:28:43.624Z,40.35
2019-05-06T09:31:14.086Z,39.14
2019-05-06T09:33:44.382Z,38.11
2019-05-06T09:36:13.069Z,39.47
2019-05-06T09:38:42.433Z,38.60
2019-05-06T09:41:12.408Z,39.42
2019-05-06T09:43:43.291Z,40.27
2019-05-06T09:46:12.888Z,41.21
2019-05-06T09:48:43.842Z,41.88
2019-05-06T09:51:13.196Z,43.23
2019-05-06T09:53:49.373Z,43.56
2019-05-06T09:56:19.831Z,44.88
2019-05-06T09:58:50.008Z,49.21
2019-05-06T10:01:18.745Z,50.60
2019-05-06T10:03:47.460Z,52.03
2019-05-06T10:06:16.186Z,53.71
2019-05-06T10:08:44.965Z,55.89
2019-05-06T10:11:13.712Z,56.65
2019-05-06T10:13:43.136Z,57.16
2019-05-06T10:16:12.993Z,52.85
2019-05-06T10:18:42.004Z,50.51
2019-05-06T10:21:12.492Z,50.27
2019-05-06T10:23:42.279Z,48.39
2019-05-06T10:26:12.985Z,46.98
2019-05-06T10:28:43.536Z,45.20
2019-05-06T10:31:13.893Z,43.76
2019-05-06T10:34:02.850Z,45.24
2019-05-06T10:36:37.913Z,47.10
2019-05-06T10:39:09.496Z,49.38
2019-05-06T10:41:42.258Z,51.87
2019-05-06T10:44:16.568Z,53.65
2019-05-06T10:46:46.724Z,54.75
2019-05-06T10:49:15.422Z,56.32
2019-05-06T10:51:48.516Z,58.61
2019-05-06T10:54:17.304Z,57.52
2019-05-06T10:56:52.933Z,57.45
2019-05-06T10:59:21.918Z,56.44
2019-05-06T11:01:52.357Z,53.37
2019-05-06T11:04:22.515Z,51.30
2019-05-06T11:06:52.549Z,47.50
2019-05-06T11:09:22.637Z,46.38
2019-05-06T11:11:53.117Z,43.25
2019-05-06T11:14:22.911Z,39.40
2019-05-06T11:16:51.817Z,41.39
2019-05-06T11:19:22.315Z,38.83
2019-05-06T11:21:53.156Z,40.37
2019-05-06T11:24:23.111Z,42.38
2019-05-06T11:26:53.514Z,40.79
2019-05-06T11:29:23.828Z,41.68
2019-05-06T11:31:56.865Z,42.24
2019-05-06T11:34:36.087Z,44.60
2019-05-06T11:37:24.877Z,49.78
2019-05-06T11:39:53.611Z,52.13
2019-05-06T11:42:31.721Z,53.54
2019-05-06T11:44:56.530Z,54.17
2019-05-06T11:47:25.263Z,54.88
2019-05-06T11:49:56.487Z,54.67
2019-05-06T11:52:25.463Z,54.99
2019-05-06T11:54:54.263Z,55.63
2019-05-06T11:57:23.288Z,57.06
2019-05-06T11:59:52.829Z,58.08
2019-05-06T12:02:23.324Z,59.17
2019-05-06T12:04:52.828Z,61.04
2019-05-06T12:07:24.670Z,60.61
2019-05-06T12:09:53.846Z,56.20
2019-05-06T12:12:23.385Z,54.88
2019-05-06T12:14:52.822Z,53.51
2019-05-06T12:17:22.285Z,50.60
2019-05-06T12:19:52.794Z,49.50
2019-05-06T12:22:22.190Z,46.45
2019-05-06T12:24:52.510Z,44.69
2019-05-06T12:27:39.377Z,44.78
2019-05-06T12:30:08.415Z,47.02
2019-05-06T12:32:38.728Z,48.82
2019-05-06T12:35:08.181Z,57.07
2019-05-06T12:37:38.459Z,61.51
2019-05-06T12:40:07.486Z,63.31
2019-05-06T12:42:37.814Z,64.86
2019-05-06T12:45:08.712Z,65.20
2019-05-06T12:47:45.018Z,67.26
2019-05-06T12:50:14.375Z,69.23
2019-05-06T12:52:44.241Z,70.53
2019-05-06T12:55:21.541Z,71.00
2019-05-06T12:57:45.234Z,71.10
2019-05-06T13:00:14.318Z,69.78
2019-05-06T13:02:43.867Z,69.63
2019-05-06T13:05:13.214Z,69.61
2019-05-06T13:07:47.696Z,70.47
2019-05-06T13:10:19.774Z,70.86
2019-05-06T13:12:50.093Z,72.03
2019-05-06T13:15:18.956Z,73.87
2019-05-06T13:17:47.675Z,75.11
2019-05-06T13:20:17.014Z,73.92
2019-05-06T13:22:47.366Z,70.54
2019-05-06T13:25:16.270Z,69.84
2019-05-06T13:27:45.596Z,66.64
2019-05-06T13:30:14.830Z,68.24
2019-05-06T13:35:39.032Z,69.11
2019-05-06T13:38:07.779Z,68.86
2019-05-06T13:40:51.331Z,67.87
2019-05-06T13:45:52.560Z,66.75
2019-05-06T13:48:39.328Z,66.85
2019-05-06T13:51:09.639Z,67.09
2019-05-06T13:53:41.722Z,67.72
2019-05-06T13:56:08.764Z,67.08
2019-05-06T13:58:37.535Z,66.97
2019-05-06T14:01:07.955Z,67.15
2019-05-06T14:03:36.831Z,67.16
2019-05-06T14:06:05.536Z,65.78
2019-05-06T14:08:34.306Z,65.12
2019-05-06T14:11:03.141Z,62.74
2019-05-06T14:13:32.722Z,63.35
2019-05-06T14:16:03.922Z,64.45
2019-05-06T14:18:33.257Z,63.87
2019-05-06T14:21:03.119Z,64.80
2019-05-06T14:23:32.708Z,64.40
2019-05-06T14:26:19.621Z,62.10
2019-05-06T14:28:49.938Z,61.94
2019-05-06T14:31:25.327Z,59.95
2019-05-06T14:33:52.259Z,59.18
2019-05-06T14:36:23.057Z,58.16
2019-05-06T14:38:54.219Z,58.96
2019-05-06T14:41:26.733Z,58.92
2019-05-06T14:43:55.196Z,58.23
2019-05-06T14:46:23.942Z,57.82
2019-05-06T14:48:53.431Z,56.99
2019-05-06T14:51:22.407Z,56.40
2019-05-06T14:53:53.001Z,56.41
2019-05-06T14:56:26.049Z,56.53
2019-05-06T15:01:45.413Z,55.53
2019-05-06T15:04:13.422Z,56.04
2019-05-06T15:06:42.701Z,55.08
2019-05-06T15:09:13.337Z,53.89
2019-05-06T15:11:43.411Z,54.53
2019-05-06T15:14:13.042Z,53.66
2019-05-06T15:16:42.342Z,52.59
2019-05-06T15:19:12.902Z,51.42
2019-05-06T15:21:42.788Z,52.51
2019-05-06T15:24:13.797Z,52.67
2019-05-06T15:26:42.538Z,52.28
2019-05-06T15:29:12.670Z,51.21
2019-05-06T15:31:46.190Z,50.61
2019-05-06T15:34:19.459Z,50.94
2019-05-06T15:36:55.752Z,50.55
2019-05-06T15:39:24.417Z,50.09
2019-05-06T15:41:56.505Z,50.66
2019-05-06T15:44:37.486Z,50.26
2019-05-06T15:47:06.165Z,49.36
2019-05-06T15:49:34.901Z,50.07
2019-05-06T15:52:03.816Z,49.44
2019-05-06T15:54:32.533Z,50.25
2019-05-06T15:57:01.298Z,50.74
2019-05-06T15:59:33.290Z,50.25
2019-05-06T16:02:01.942Z,48.56
2019-05-06T16:04:32.538Z,49.35
2019-05-06T16:07:02.866Z,48.38
2019-05-06T16:09:32.470Z,47.88
2019-05-06T16:12:03.015Z,48.63
2019-05-06T16:14:34.745Z,48.47
2019-05-06T16:17:02.279Z,48.55
2019-05-06T16:19:33.080Z,48.90
2019-05-06T16:22:03.906Z,48.79
2019-05-06T16:24:35.180Z,48.46
2019-05-06T16:27:04.122Z,48.50
2019-05-06T16:29:35.855Z,48.64
2019-05-06T16:32:06.021Z,49.91
2019-05-06T16:34:34.719Z,49.06
2019-05-06T16:37:03.484Z,49.07
2019-05-06T16:39:33.119Z,49.35
2019-05-06T16:42:03.663Z,49.54
2019-05-06T16:44:32.555Z,50.16
2019-05-06T16:47:02.863Z,50.39
2019-05-06T16:49:33.206Z,49.77
2019-05-06T16:52:02.737Z,50.50
2019-05-06T16:54:34.578Z,50.28
2019-05-06T16:57:04.268Z,52.11
2019-05-06T16:59:33.585Z,54.99
2019-05-06T17:02:03.978Z,56.14
2019-05-06T17:04:34.283Z,57.25
2019-05-06T17:07:03.203Z,57.70
2019-05-06T17:09:33.119Z,58.75
2019-05-06T17:12:04.444Z,58.82
2019-05-06T17:14:32.599Z,59.24
2019-05-06T17:17:03.270Z,59.70
2019-05-06T17:19:32.425Z,60.15
2019-05-06T17:22:02.988Z,60.36
2019-05-06T17:24:33.096Z,60.56
2019-05-06T17:27:02.820Z,60.59
2019-05-06T17:29:45.391Z,60.49
2019-05-06T17:32:15.723Z,60.54
2019-05-06T17:34:46.421Z,60.43
2019-05-06T17:37:36.564Z,60.46
2019-05-06T17:40:10.100Z,60.31
2019-05-06T17:42:35.616Z,60.23
2019-05-06T17:45:08.684Z,60.38
2019-05-06T17:47:38.988Z,60.20
2019-05-06T17:50:07.917Z,60.17
2019-05-06T17:52:37.023Z,59.91
2019-05-06T17:55:06.302Z,59.65
2019-05-06T17:57:34.999Z,59.65
2019-05-06T18:00:05.717Z,59.79
2019-05-06T18:02:34.449Z,60.01
2019-05-06T18:05:03.350Z,59.97
2019-05-06T18:07:32.705Z,60.05
2019-05-06T18:10:03.065Z,60.10
2019-05-06T18:12:32.845Z,60.00
2019-05-06T18:15:02.764Z,60.00
2019-05-06T18:17:33.135Z,57.63
2019-05-06T18:20:02.976Z,55.30
2019-05-06T18:22:33.711Z,54.38
2019-05-06T18:25:02.949Z,53.85
2019-05-06T18:27:32.618Z,53.43
2019-05-06T18:30:13.417Z,52.92
2019-05-06T18:32:32.810Z,52.66
2019-05-06T18:35:02.801Z,52.95
2019-05-06T18:37:33.200Z,53.27
2019-05-06T18:40:02.188Z,52.82
2019-05-06T18:42:32.785Z,53.09
2019-05-06T18:45:02.763Z,52.70
2019-05-06T18:47:33.054Z,52.89
2019-05-06T18:50:02.455Z,52.56
2019-05-06T18:52:32.247Z,52.84
2019-05-06T18:55:01.476Z,52.88
2019-05-06T18:57:32.303Z,53.11
2019-05-06T19:00:02.933Z,53.35
2019-05-06T19:02:31.161Z,53.68
2019-05-06T19:05:02.308Z,54.24
2019-05-06T19:07:33.279Z,54.80
2019-05-06T19:10:09.209Z,56.06
2019-05-06T19:12:41.372Z,56.78
2019-05-06T19:15:08.462Z,57.54
2019-05-06T19:17:37.255Z,58.21
2019-05-06T19:20:07.546Z,58.80
2019-05-06T19:22:36.213Z,59.58
2019-05-06T19:25:05.248Z,59.86
2019-05-06T19:27:33.988Z,60.04
2019-05-06T19:30:03.349Z,60.34
2019-05-06T19:32:34.976Z,60.45
2019-05-06T19:35:02.974Z,60.46
2019-05-06T19:37:32.845Z,60.89
2019-05-06T19:40:02.915Z,61.01
2019-05-06T19:42:45.788Z,61.05
2019-05-06T19:45:02.674Z,61.18
2019-05-06T19:47:31.928Z,61.29
2019-05-06T19:50:02.848Z,61.49
2019-05-06T19:52:32.650Z,61.54
2019-05-06T19:55:03.099Z,61.82
2019-05-06T19:57:32.457Z,61.97
2019-05-06T20:00:03.238Z,61.73
2019-05-06T20:02:32.083Z,61.79
2019-05-06T20:05:03.285Z,62.02
2019-05-06T20:07:34.195Z,61.93
2019-05-06T20:10:13.513Z,62.09
2019-05-06T20:12:58.369Z,62.21
2019-05-06T20:15:32.352Z,62.33
2019-05-06T20:18:03.048Z,62.55
2019-05-06T20:20:34.711Z,62.44
2019-05-06T20:23:02.663Z,62.75
2019-05-06T20:25:31.585Z,62.98
2019-05-06T20:28:02.301Z,63.11
2019-05-06T20:30:32.661Z,63.33
2019-05-06T20:33:01.226Z,63.53
2019-05-06T20:35:32.012Z,63.68
2019-05-06T20:38:02.594Z,63.91
2019-05-06T20:40:32.690Z,63.98
2019-05-06T20:43:14.082Z,63.91
2019-05-06T20:45:35.072Z,64.03
2019-05-06T20:48:03.233Z,64.31
2019-05-06T20:50:32.314Z,64.16
2019-05-06T20:53:01.128Z,64.27
2019-05-06T20:55:50.494Z,64.36
2019-05-06T20:58:19.174Z,64.33
2019-05-06T21:00:47.907Z,64.53
2019-05-06T21:03:16.578Z,64.69
2019-05-06T21:05:45.334Z,64.30
2019-05-06T21:08:13.996Z,64.25
2019-05-06T21:10:42.884Z,64.46
2019-05-06T21:13:13.349Z,64.72
2019-05-06T21:15:43.177Z,64.81
2019-05-06T21:18:12.406Z,64.94
2019-05-06T21:20:43.349Z,65.01
2019-05-06T21:23:11.620Z,65.08
2019-05-06T21:25:40.385Z,65.12
2019-05-06T21:28:09.075Z,65.57
2019-05-06T21:30:38.078Z,65.81
2019-05-06T21:33:06.876Z,66.63
2019-05-06T21:35:35.569Z,67.13
2019-05-06T21:38:04.336Z,67.25
2019-05-06T21:40:33.078Z,67.61
2019-05-06T21:43:02.194Z,67.13
2019-05-06T21:45:33.160Z,66.79
2019-05-06T21:48:02.792Z,66.73
2019-05-06T21:50:33.099Z,66.34
2019-05-06T21:53:02.905Z,66.13
2019-05-06T21:55:32.581Z,66.31
2019-05-06T21:58:02.192Z,66.19
2019-05-06T22:00:43.367Z,66.14
2019-05-06T22:03:13.382Z,66.05
2019-05-06T22:05:42.412Z,66.01
2019-05-06T22:08:12.876Z,66.06
2019-05-06T22:10:42.274Z,66.25
2019-05-06T22:13:14.635Z,66.11
2019-05-06T22:15:43.486Z,65.93
2019-05-06T22:18:12.688Z,66.33
2019-05-06T22:20:59.220Z,66.11
2019-05-06T22:23:29.544Z,65.86
2019-05-06T22:26:10.809Z,65.81
2019-05-06T22:28:28.636Z,66.08
2019-05-06T22:30:57.400Z,65.97
2019-05-06T22:33:26.075Z,65.82
2019-05-06T22:35:55.002Z,65.75
2019-05-06T22:38:23.771Z,65.75
2019-05-06T22:40:53.058Z,65.72
2019-05-06T22:43:22.041Z,65.62
2019-05-06T22:45:50.766Z,65.63
2019-05-06T22:48:19.498Z,65.54
2019-05-06T22:50:48.264Z,65.66
2019-05-06T22:53:16.954Z,65.70
2019-05-06T22:55:45.726Z,65.64
2019-05-06T22:58:16.046Z,65.57
2019-05-06T23:00:46.355Z,65.47
2019-05-06T23:03:16.702Z,65.39
2019-05-06T23:05:45.364Z,65.38
2019-05-06T23:08:14.148Z,65.59
2019-05-06T23:10:42.838Z,65.69
2019-05-06T23:13:12.564Z,65.87
2019-05-06T23:15:42.060Z,65.68
2019-05-06T23:18:10.866Z,65.59
2019-05-06T23:20:39.524Z,65.55
2019-05-06T23:23:08.226Z,65.52
2019-05-06T23:25:36.980Z,65.54
2019-05-06T23:28:05.753Z,65.53
2019-05-06T23:30:34.604Z,65.88
2019-05-06T23:33:03.384Z,66.19
2019-05-06T23:35:32.036Z,65.89
2019-05-06T23:38:36.916Z,65.89
2019-05-06T23:41:42.409Z,65.88
2019-05-06T23:44:47.506Z,65.72
2019-05-06T23:47:53.116Z,65.67
2019-05-06T23:50:39.041Z,65.71
2019-05-06T23:53:25.136Z,68.16
2019-05-06T23:56:30.423Z,67.35
2019-05-06T23:58:59.107Z,65.70
